Time;durP1;ratioP1;P1;durP2;ratioP2;P2;SDS_P1;SDS_P2;PMS_P1;PMS_P2;Temp;Humidity;BMP_temperature;BMP_pressure;BME280_temperature;BME280_humidity;BME280_pressure;Samples;Min_cycle;Max_cycle;Signal;HPM_P1;HPM_P2
2022/08/21 00:00:09;;;;;;;;;;;21.80;97.10;21.70;99647.00;;;;346159;28;83300;-91
2022/08/21 00:00:22;;;;;;;;;;;21.80;97.10;21.70;99643.00;;;;348074;27;96976;-90
2022/08/21 00:00:34;;;;;;;;;;;21.80;97.20;21.70;99644.00;;;;346134;28;82405;-90
2022/08/21 00:00:46;;;;;;;;;;;21.80;97.20;21.70;99643.00;;;;348056;27;96101;-91
2022/08/21 00:00:58;;;;;;;;;;;21.80;97.20;21.70;99637.00;;;;348671;27;83254;-91
2022/08/21 00:01:11;;;;;;;;;;;21.80;97.20;21.70;99647.00;;;;345240;28;96191;-90
2022/08/21 00:01:25;;;;;;;;;;;21.80;97.10;21.80;99638.00;;;;347557;28;82525;-91
2022/08/21 00:01:37;;;;;;;;;;;21.80;97.10;21.80;99644.00;;;;348060;27;95303;-91
2022/08/21 00:01:48;;;;;;;;;;;21.80;97.20;21.70;99638.00;;;;347339;28;83306;-91
2022/08/21 00:02:00;;;;;;;;;;;21.80;97.20;21.70;99650.00;;;;345335;28;96363;-91
2022/08/21 00:02:14;;;;;;;;;;;21.80;97.10;21.70;99637.00;;;;347443;28;83389;-91
2022/08/21 00:02:27;;;;;;;;;;;21.70;97.10;21.80;99643.00;;;;345348;28;95526;-90
2022/08/21 00:02:49;;;;;;;;;;;21.70;97.10;21.70;99642.00;;;;345963;28;83529;-90
2022/08/21 00:03:03;;;;;;;;;;;21.80;97.10;21.70;99640.00;;;;345349;28;96481;-91
2022/08/21 00:03:15;;;;;;;;;;;21.80;97.20;21.70;99644.00;;;;347468;28;82639;-91
2022/08/21 00:03:27;;;;;;;;;;;21.80;97.10;21.70;99648.00;;;;345275;28;96159;-91
2022/08/21 00:03:39;;;;;;;;;;;21.80;97.10;21.70;99647.00;;;;347465;28;83431;-91
2022/08/21 00:03:50;;;;;;;;;;;21.80;97.10;21.70;99642.00;;;;348025;27;96739;-91
2022/08/21 00:04:06;;;;;;;;;;;21.70;97.10;21.70;99644.00;;;;348882;27;83369;-91
2022/08/21 00:04:18;;;;;;;;;;;21.70;97.10;21.70;99635.00;;;;346731;28;96159;-91
2022/08/21 00:04:33;;;;;;;;;;;21.70;97.00;21.70;99638.00;;;;347378;28;83357;-91
2022/08/21 00:04:45;;;;;;;;;;;21.80;97.10;21.70;99644.00;;;;345280;28;96769;-91
2022/08/21 00:05:08;;;;;;;;;;;21.70;97.10;21.70;99642.00;;;;348719;27;82343;-91
2022/08/21 00:05:19;;;;;;;;;;;21.70;97.10;21.70;99633.00;;;;345270;28;95658;-91
2022/08/21 00:05:32;;;;;;;;;;;21.70;97.10;21.70;99630.00;;;;347442;28;83321;-91
2022/08/21 00:05:46;;;;;;;;;;;21.70;97.10;21.70;99635.00;;;;346595;28;97610;-91
2022/08/21 00:05:58;;;;;;;;;;;21.70;97.10;21.70;99633.00;;;;348852;27;82520;-91
2022/08/21 00:06:10;;;;;;;;;;;21.70;97.10;21.70;99633.00;;;;348085;27;96647;-91
2022/08/21 00:06:25;;;;;;;;;;;21.70;97.10;21.70;99635.00;;;;347594;28;83390;-91
2022/08/21 00:06:37;;;;;;;;;;;21.70;97.10;21.70;99637.00;;;;348041;27;96996;-91
2022/08/21 00:06:52;;;;;;;;;;;21.70;97.20;21.70;99637.00;;;;347502;28;83393;-92
2022/08/21 00:07:03;;;;;;;;;;;21.70;97.20;21.70;99636.00;;;;346697;28;96604;-91
2022/08/21 00:07:16;;;;;;;;;;;21.70;97.20;21.70;99633.00;;;;348813;27;83413;-91
2022/08/21 00:07:28;;;;;;;;;;;21.70;97.10;21.70;99634.00;;;;348138;27;96184;-91
2022/08/21 00:07:39;;;;;;;;;;;21.70;97.10;21.70;99630.00;;;;346143;28;83448;-91
2022/08/21 00:07:51;;;;;;;;;;;21.70;97.10;21.70;99636.00;;;;346579;28;97501;-91
2022/08/21 00:08:03;;;;;;;;;;;21.70;97.10;21.60;99635.00;;;;347467;28;83326;-91
2022/08/21 00:08:16;;;;;;;;;;;21.70;97.10;21.60;99634.00;;;;348097;27;95480;-90
2022/08/21 00:08:28;;;;;;;;;;;21.70;97.10;21.50;99631.00;;;;347558;28;82370;-91
2022/08/21 00:08:40;;;;;;;;;;;21.70;97.10;21.60;99628.00;;;;347947;27;95518;-91
2022/08/21 00:08:51;;;;;;;;;;;21.70;97.10;21.60;99627.00;;;;344738;28;83387;-91
2022/08/21 00:09:04;;;;;;;;;;;21.60;97.10;21.70;99633.00;;;;343928;28;96611;-91
2022/08/21 00:09:17;;;;;;;;;;;21.70;97.10;21.70;99635.00;;;;348863;27;83485;-92
2022/08/21 00:09:29;;;;;;;;;;;21.70;97.20;21.70;99633.00;;;;346659;28;96822;-91
2022/08/21 00:09:41;;;;;;;;;;;21.70;97.20;21.70;99632.00;;;;346152;28;82379;-91
2022/08/21 00:09:53;;;;;;;;;;;21.70;97.20;21.70;99638.00;;;;345185;28;96503;-91
2022/08/21 00:10:06;;;;;;;;;;;21.70;97.10;21.60;99632.00;;;;344734;28;83173;-91
2022/08/21 00:10:18;;;;;;;;;;;21.60;97.10;21.60;99629.00;;;;346587;28;97420;-91
2022/08/21 00:10:29;;;;;;;;;;;21.60;97.20;21.60;99633.00;;;;344723;28;82294;-91
2022/08/21 00:10:42;;;;;;;;;;;21.60;97.20;21.70;99633.00;;;;345349;28;95250;-91
2022/08/21 00:10:54;;;;;;;;;;;21.60;97.20;21.70;99627.00;;;;346073;28;83316;-91
2022/08/21 00:11:06;;;;;;;;;;;21.60;97.20;21.70;99633.00;;;;348117;27;96028;-91
2022/08/21 00:11:17;;;;;;;;;;;21.70;97.20;21.60;99636.00;;;;348762;27;83473;-91
2022/08/21 00:11:29;;;;;;;;;;;21.60;97.20;21.70;99635.00;;;;346624;28;96339;-91
2022/08/21 00:11:41;;;;;;;;;;;21.60;97.20;21.60;99630.00;;;;344727;28;82472;-92
2022/08/21 00:11:53;;;;;;;;;;;21.60;97.20;21.70;99633.00;;;;345207;28;97914;-91
2022/08/21 00:12:05;;;;;;;;;;;21.60;97.20;21.70;99638.00;;;;346104;28;82569;-91
2022/08/21 00:12:17;;;;;;;;;;;21.60;97.20;21.70;99638.00;;;;345264;28;96411;-91
2022/08/21 00:12:28;;;;;;;;;;;21.60;97.30;21.70;99631.00;;;;346046;28;83551;-90
2022/08/21 00:12:40;;;;;;;;;;;21.60;97.20;21.70;99632.00;;;;346687;28;95325;-91
2022/08/21 00:12:52;;;;;;;;;;;21.60;97.20;21.60;99629.00;;;;347456;28;83539;-91
2022/08/21 00:13:04;;;;;;;;;;;21.60;97.30;21.60;99633.00;;;;346693;28;96461;-91
2022/08/21 00:13:16;;;;;;;;;;;21.60;97.30;21.60;99640.00;;;;346013;28;83411;-91
2022/08/21 00:13:29;;;;;;;;;;;21.60;97.30;21.70;99639.00;;;;345270;28;95617;-91
2022/08/21 00:13:41;;;;;;;;;;;21.60;97.30;21.70;99634.00;;;;346057;28;83280;-91
2022/08/21 00:13:54;;;;;;;;;;;21.60;97.30;21.60;99637.00;;;;346559;27;96276;-93
2022/08/21 00:14:07;;;;;;;;;;;21.60;97.30;21.60;99640.00;;;;348898;27;83321;-91
2022/08/21 00:14:19;;;;;;;;;;;21.60;97.40;21.60;99636.00;;;;345344;28;96831;-91
2022/08/21 00:14:31;;;;;;;;;;;21.60;97.20;21.60;99638.00;;;;347427;27;83389;-90
2022/08/21 00:14:43;;;;;;;;;;;21.60;97.30;21.60;99639.00;;;;346799;28;95283;-91
2022/08/21 00:14:57;;;;;;;;;;;21.60;97.30;21.60;99632.00;;;;346106;28;82522;-91
2022/08/21 00:15:12;;;;;;;;;;;21.60;97.20;21.60;99631.00;;;;346679;28;95281;-91
2022/08/21 00:15:26;;;;;;;;;;;21.60;97.20;21.70;99627.00;;;;346079;28;83504;-91
2022/08/21 00:15:39;;;;;;;;;;;21.60;97.30;21.70;99636.00;;;;348069;27;96283;-91
2022/08/21 00:15:50;;;;;;;;;;;21.60;97.20;21.60;99629.00;;;;347432;28;83360;-91
2022/08/21 00:16:03;;;;;;;;;;;21.60;97.20;21.60;99631.00;;;;343953;28;96417;-91
2022/08/21 00:16:15;;;;;;;;;;;21.60;97.20;21.60;99629.00;;;;347516;28;83508;-92
2022/08/21 00:16:27;;;;;;;;;;;21.60;97.20;21.60;99631.00;;;;346697;28;96437;-91
2022/08/21 00:16:39;;;;;;;;;;;21.60;97.20;21.60;99632.00;;;;346074;28;83435;-91
2022/08/21 00:16:50;;;;;;;;;;;21.60;97.20;21.60;99624.00;;;;346646;28;95414;-91
2022/08/21 00:17:03;;;;;;;;;;;21.60;97.20;21.60;99636.00;;;;346068;28;83443;-91
2022/08/21 00:17:15;;;;;;;;;;;21.60;97.20;21.60;99631.00;;;;343975;28;95312;-91
2022/08/21 00:17:27;;;;;;;;;;;21.60;97.20;21.60;99631.00;;;;346075;28;83356;-91
2022/08/21 00:17:38;;;;;;;;;;;21.60;97.30;21.60;99632.00;;;;346521;28;95551;-91
2022/08/21 00:17:50;;;;;;;;;;;21.60;97.30;21.60;99630.00;;;;346046;28;83464;-91
2022/08/21 00:18:03;;;;;;;;;;;21.60;97.30;21.70;99634.00;;;;346550;28;97933;-91
2022/08/21 00:18:15;;;;;;;;;;;21.60;97.30;21.60;99624.00;;;;344521;28;83346;-91
2022/08/21 00:18:27;;;;;;;;;;;21.60;97.20;21.60;99631.00;;;;345124;28;95459;-91
2022/08/21 00:18:39;;;;;;;;;;;21.60;97.20;21.70;99628.00;;;;347262;28;83256;-91
2022/08/21 00:18:51;;;;;;;;;;;21.60;97.20;21.60;99632.00;;;;346638;28;95309;-91
2022/08/21 00:19:03;;;;;;;;;;;21.60;97.20;21.70;99629.00;;;;347472;28;83160;-91
2022/08/21 00:19:15;;;;;;;;;;;21.60;97.20;21.60;99624.00;;;;343915;28;95416;-91
2022/08/21 00:19:27;;;;;;;;;;;21.60;97.20;21.60;99629.00;;;;348802;27;83450;-91
2022/08/21 00:19:39;;;;;;;;;;;21.50;97.10;21.60;99628.00;;;;348057;27;96502;-91
2022/08/21 00:19:50;;;;;;;;;;;21.60;97.20;21.60;99624.00;;;;347387;28;83360;-91
2022/08/21 00:20:07;;;;;;;;;;;21.60;97.20;21.70;99634.00;;;;345253;28;96855;-91
2022/08/21 00:20:19;;;;;;;;;;;21.50;97.10;21.50;99632.00;;;;344705;28;83335;-91
2022/08/21 00:20:31;;;;;;;;;;;21.60;97.20;21.60;99628.00;;;;345242;28;95565;-91
2022/08/21 00:20:43;;;;;;;;;;;21.60;97.20;21.60;99625.00;;;;346066;28;82451;-91
2022/08/21 00:20:55;;;;;;;;;;;21.60;97.20;21.60;99631.00;;;;345379;28;94123;-91
2022/08/21 00:21:07;;;;;;;;;;;21.60;97.30;21.60;99626.00;;;;347585;28;82311;-91
2022/08/21 00:21:19;;;;;;;;;;;21.60;97.20;21.60;99625.00;;;;348082;27;96447;-91
2022/08/21 00:21:31;;;;;;;;;;;21.50;97.20;21.60;99629.00;;;;346059;28;83396;-91
2022/08/21 00:21:42;;;;;;;;;;;21.60;97.30;21.60;99628.00;;;;345328;28;96265;-91
2022/08/21 00:21:55;;;;;;;;;;;21.60;97.20;21.60;99633.00;;;;346072;28;82393;-91
2022/08/21 00:22:07;;;;;;;;;;;21.60;97.10;21.70;99625.00;;;;346591;28;97216;-91
2022/08/21 00:22:19;;;;;;;;;;;21.60;97.10;21.70;99626.00;;;;347382;28;83317;-90
2022/08/21 00:22:30;;;;;;;;;;;21.60;97.10;21.60;99625.00;;;;345329;28;95438;-91
2022/08/21 00:22:42;;;;;;;;;;;21.60;97.20;21.60;99632.00;;;;346003;28;83500;-91
2022/08/21 00:22:54;;;;;;;;;;;21.60;97.10;21.70;99629.00;;;;346605;27;95569;-91
2022/08/21 00:23:08;;;;;;;;;;;21.60;97.10;21.70;99622.00;;;;348850;27;82598;-91
2022/08/21 00:23:20;;;;;;;;;;;21.60;97.10;21.70;99626.00;;;;346391;28;94433;-91
2022/08/21 00:23:34;;;;;;;;;;;21.60;97.10;21.70;99634.00;;;;348946;27;82519;-91
2022/08/21 00:23:45;;;;;;;;;;;21.60;97.10;21.70;99630.00;;;;349466;27;96543;-91
2022/08/21 00:23:57;;;;;;;;;;;21.60;97.10;21.60;99628.00;;;;348795;27;83259;-91
2022/08/21 00:24:09;;;;;;;;;;;21.60;97.10;21.60;99631.00;;;;348134;27;97477;-91
2022/08/21 00:24:22;;;;;;;;;;;21.60;97.20;21.60;99632.00;;;;351724;27;82466;-91
2022/08/21 00:24:33;;;;;;;;;;;21.60;97.10;21.60;99629.00;;;;345296;28;96248;-91
2022/08/21 00:24:45;;;;;;;;;;;21.60;97.10;21.60;99631.00;;;;350284;27;83319;-91
2022/08/21 00:24:57;;;;;;;;;;;21.60;97.10;21.60;99636.00;;;;345207;28;96666;-92
2022/08/21 00:25:09;;;;;;;;;;;21.60;97.10;21.60;99635.00;;;;348740;27;83196;-91
2022/08/21 00:25:21;;;;;;;;;;;21.60;97.20;21.60;99634.00;;;;347565;27;94933;-91
2022/08/21 00:25:36;;;;;;;;;;;21.60;97.20;21.50;99629.00;;;;347428;28;83397;-91
2022/08/21 00:25:48;;;;;;;;;;;21.50;97.10;21.60;99630.00;;;;345345;28;96408;-91
2022/08/21 00:26:00;;;;;;;;;;;21.50;97.10;21.50;99629.00;;;;348839;27;82385;-91
2022/08/21 00:26:12;;;;;;;;;;;21.50;97.10;21.60;99633.00;;;;345203;28;96707;-91
2022/08/21 00:26:24;;;;;;;;;;;21.50;97.10;21.60;99636.00;;;;346170;28;82311;-91
2022/08/21 00:26:35;;;;;;;;;;;21.60;97.20;21.60;99626.00;;;;348100;27;94018;-91
2022/08/21 00:26:47;;;;;;;;;;;21.50;97.20;21.60;99627.00;;;;346070;28;83204;-91
2022/08/21 00:26:59;;;;;;;;;;;21.50;97.20;21.60;99633.00;;;;343892;28;96662;-91
2022/08/21 00:27:11;;;;;;;;;;;21.50;97.20;21.60;99635.00;;;;344693;28;82417;-92
2022/08/21 00:27:23;;;;;;;;;;;21.50;97.20;21.60;99631.00;;;;345337;28;96207;-92
2022/08/21 00:27:35;;;;;;;;;;;21.50;97.30;21.50;99633.00;;;;346106;28;83396;-91
2022/08/21 00:27:47;;;;;;;;;;;21.50;97.30;21.60;99631.00;;;;345270;28;96438;-91
2022/08/21 00:27:59;;;;;;;;;;;21.50;97.30;21.60;99629.00;;;;346014;28;83375;-91
2022/08/21 00:28:11;;;;;;;;;;;21.50;97.30;21.50;99622.00;;;;348010;27;97589;-90
2022/08/21 00:28:22;;;;;;;;;;;21.50;97.30;21.60;99632.00;;;;344698;28;82375;-91
2022/08/21 00:28:34;;;;;;;;;;;21.50;97.30;21.50;99641.00;;;;343942;28;94043;-91
2022/08/21 00:28:48;;;;;;;;;;;21.50;97.20;21.50;99631.00;;;;344753;28;82469;-91
2022/08/21 00:29:00;;;;;;;;;;;21.50;97.20;21.50;99639.00;;;;346723;28;95401;-91
2022/08/21 00:29:13;;;;;;;;;;;21.50;97.20;21.40;99635.00;;;;348821;27;83237;-91
2022/08/21 00:29:25;;;;;;;;;;;21.50;97.20;21.30;99633.00;;;;345384;28;95056;-91
2022/08/21 00:29:36;;;;;;;;;;;21.50;97.20;21.40;99623.00;;;;347371;28;82564;-91
2022/08/21 00:29:48;;;;;;;;;;;21.50;97.20;21.50;99626.00;;;;346600;28;96877;-91
2022/08/21 00:30:00;;;;;;;;;;;21.40;97.20;21.60;99636.00;;;;347431;28;83244;-91
2022/08/21 00:30:13;;;;;;;;;;;21.40;97.20;21.60;99632.00;;;;345266;28;96431;-91
2022/08/21 00:30:33;;;;;;;;;;;21.50;97.30;21.60;99629.00;;;;345917;28;83565;-91
2022/08/21 00:30:45;;;;;;;;;;;21.50;97.30;21.60;99629.00;;;;345367;28;96540;-92
2022/08/21 00:30:57;;;;;;;;;;;21.50;97.30;21.60;99626.00;;;;347532;28;83133;-91
2022/08/21 00:31:09;;;;;;;;;;;21.50;97.30;21.60;99627.00;;;;345231;28;95566;-91
2022/08/21 00:31:21;;;;;;;;;;;21.50;97.30;21.60;99620.00;;;;348841;27;82542;-91
2022/08/21 00:31:33;;;;;;;;;;;21.50;97.30;21.50;99631.00;;;;346689;28;96339;-91
2022/08/21 00:31:45;;;;;;;;;;;21.50;97.20;21.40;99630.00;;;;346093;28;83354;-91
2022/08/21 00:31:57;;;;;;;;;;;21.50;97.20;21.40;99623.00;;;;345206;28;96846;-91
2022/08/21 00:32:08;;;;;;;;;;;21.40;97.20;21.40;99627.00;;;;347441;28;83441;-89
2022/08/21 00:32:24;;;;;;;;;;;21.40;97.20;21.50;99625.00;;;;345305;28;96302;-91
2022/08/21 00:32:36;;;;;;;;;;;21.40;97.20;21.50;99619.00;;;;344503;28;83389;-91
2022/08/21 00:32:48;;;;;;;;;;;21.40;97.20;21.50;99620.00;;;;346612;27;97611;-91
2022/08/21 00:33:00;;;;;;;;;;;21.40;97.20;21.50;99620.00;;;;347517;28;83334;-92
2022/08/21 00:33:12;;;;;;;;;;;21.40;97.20;21.50;99623.00;;;;345212;28;97249;-91
2022/08/21 00:33:24;;;;;;;;;;;21.40;97.30;21.60;99627.00;;;;348830;27;83657;-91
2022/08/21 00:33:36;;;;;;;;;;;21.40;97.30;21.50;99623.00;;;;346664;28;96734;-92
2022/08/21 00:33:48;;;;;;;;;;;21.40;97.30;21.60;99625.00;;;;346073;28;82232;-91
2022/08/21 00:34:00;;;;;;;;;;;21.40;97.40;21.50;99621.00;;;;348128;27;96398;-91
2022/08/21 00:34:12;;;;;;;;;;;21.40;97.40;21.60;99616.00;;;;344722;28;82624;-91
2022/08/21 00:34:24;;;;;;;;;;;21.40;97.40;21.60;99614.00;;;;346530;28;97640;-91
2022/08/21 00:34:35;;;;;;;;;;;21.40;97.40;21.60;99629.00;;;;346020;28;82612;-91
2022/08/21 00:34:47;;;;;;;;;;;21.40;97.40;21.50;99620.00;;;;343919;28;95367;-91
2022/08/21 00:34:59;;;;;;;;;;;21.40;97.40;21.50;99621.00;;;;347498;28;83437;-91
2022/08/21 00:35:14;;;;;;;;;;;21.40;97.40;21.60;99621.00;;;;346637;28;95905;-91
2022/08/21 00:35:31;;;;;;;;;;;21.40;97.40;21.60;99622.00;;;;347462;28;83524;-91
2022/08/21 00:35:43;;;;;;;;;;;21.40;97.40;21.60;99618.00;;;;345324;28;95796;-91
2022/08/21 00:35:55;;;;;;;;;;;21.40;97.30;21.60;99611.00;;;;348841;27;83263;-91
2022/08/21 00:36:07;;;;;;;;;;;21.40;97.30;21.60;99620.00;;;;345151;28;96657;-91
2022/08/21 00:36:19;;;;;;;;;;;21.40;97.30;21.60;99615.00;;;;348826;27;83239;-91
2022/08/21 00:36:31;;;;;;;;;;;21.40;97.30;21.60;99615.00;;;;346637;28;97532;-91
2022/08/21 00:36:42;;;;;;;;;;;21.50;97.30;21.60;99621.00;;;;347420;28;83416;-91
2022/08/21 00:36:54;;;;;;;;;;;21.50;97.30;21.60;99626.00;;;;346697;28;95350;-91
2022/08/21 00:37:07;;;;;;;;;;;21.50;97.20;21.70;99618.00;;;;347465;28;83310;-91
2022/08/21 00:37:19;;;;;;;;;;;21.50;97.20;21.60;99621.00;;;;347969;27;97548;-91
2022/08/21 00:37:31;;;;;;;;;;;21.50;97.10;21.70;99627.00;;;;346083;28;83095;-91
2022/08/21 00:37:46;;;;;;;;;;;21.50;97.10;21.70;99616.00;;;;345355;28;95204;-91
2022/08/21 00:37:57;;;;;;;;;;;21.50;97.20;21.60;99619.00;;;;344667;28;82268;-91
2022/08/21 00:38:09;;;;;;;;;;;21.50;97.10;21.60;99620.00;;;;343909;28;95005;-91
2022/08/21 00:38:21;;;;;;;;;;;21.50;97.10;21.50;99619.00;;;;345941;28;83290;-91
2022/08/21 00:38:33;;;;;;;;;;;21.50;97.40;21.40;99623.00;;;;345243;28;96543;-91
2022/08/21 00:38:45;;;;;;;;;;;21.50;97.10;21.50;99618.00;;;;347471;28;83367;-91
2022/08/21 00:38:56;;;;;;;;;;;21.50;97.10;21.40;99624.00;;;;346756;28;95936;-91
2022/08/21 00:39:08;;;;;;;;;;;21.50;97.10;21.50;99621.00;;;;346001;28;83316;-92
2022/08/21 00:39:20;;;;;;;;;;;21.50;97.20;21.40;99616.00;;;;349451;27;96312;-91
2022/08/21 00:39:32;;;;;;;;;;;21.40;97.20;21.50;99624.00;;;;346124;28;83149;-91
2022/08/21 00:39:43;;;;;;;;;;;21.40;97.10;21.50;99625.00;;;;345291;28;96949;-91
2022/08/21 00:39:56;;;;;;;;;;;21.40;97.20;21.50;99620.00;;;;346071;28;83375;-91
2022/08/21 00:40:11;;;;;;;;;;;21.40;97.30;21.40;99628.00;;;;346674;28;96585;-90
2022/08/21 00:40:26;;;;;;;;;;;21.40;97.30;21.30;99614.00;;;;346014;28;83334;-91
2022/08/21 00:40:53;;;;;;;;;;;21.40;97.30;21.40;99617.00;;;;343917;28;93897;-91
2022/08/21 00:41:06;;;;;;;;;;;21.40;97.40;21.40;99619.00;;;;346072;28;83351;-92
2022/08/21 00:41:38;;;;;;;;;;;21.40;97.40;21.40;99618.00;;;;343897;28;96091;-91
2022/08/21 00:41:50;;;;;;;;;;;21.40;97.40;21.30;99615.00;;;;346014;28;83422;-91
2022/08/21 00:42:02;;;;;;;;;;;21.40;97.50;21.40;99617.00;;;;346749;28;95854;-91
2022/08/21 00:42:14;;;;;;;;;;;21.40;97.50;21.30;99611.00;;;;346026;28;82244;-91
2022/08/21 00:42:27;;;;;;;;;;;21.40;97.60;21.30;99614.00;;;;346637;28;96260;-91
2022/08/21 00:42:39;;;;;;;;;;;21.30;97.60;21.30;99622.00;;;;348894;27;82284;-91
2022/08/21 00:42:51;;;;;;;;;;;21.30;97.70;21.20;99617.00;;;;348054;27;96469;-91
2022/08/21 00:43:05;;;;;;;;;;;21.30;97.80;21.20;99620.00;;;;345887;28;83459;-91
2022/08/21 00:43:20;;;;;;;;;;;21.30;97.70;21.20;99614.00;;;;345099;28;96174;-91
2022/08/21 00:43:33;;;;;;;;;;;21.30;97.70;21.20;99614.00;;;;347410;28;83341;-91
2022/08/21 00:43:45;;;;;;;;;;;21.30;97.70;21.20;99615.00;;;;349528;27;95573;-91
2022/08/21 00:43:57;;;;;;;;;;;21.30;97.80;21.10;99615.00;;;;344635;28;83325;-91
2022/08/21 00:44:10;;;;;;;;;;;21.30;97.90;21.10;99615.00;;;;345294;28;96459;-91
2022/08/21 00:44:22;;;;;;;;;;;21.30;98.00;21.10;99615.00;;;;346047;28;83495;-91
2022/08/21 00:44:34;;;;;;;;;;;21.30;98.00;21.20;99613.00;;;;343869;28;96444;-91
2022/08/21 00:44:46;;;;;;;;;;;21.30;97.90;21.10;99621.00;;;;346020;28;83413;-91
2022/08/21 00:44:58;;;;;;;;;;;21.30;98.00;21.10;99607.00;;;;348136;27;95316;-92
2022/08/21 00:45:10;;;;;;;;;;;21.30;98.00;21.10;99615.00;;;;348796;27;83300;-91
2022/08/21 00:45:23;;;;;;;;;;;21.30;98.10;21.10;99606.00;;;;345240;28;95989;-92
2022/08/21 00:45:35;;;;;;;;;;;21.20;98.10;21.00;99613.00;;;;347381;28;83281;-91
2022/08/21 00:45:46;;;;;;;;;;;21.20;98.00;21.00;99608.00;;;;346731;28;96395;-91
2022/08/21 00:45:58;;;;;;;;;;;21.20;98.10;21.10;99612.00;;;;346084;28;82464;-91
2022/08/21 00:46:10;;;;;;;;;;;21.20;98.10;21.10;99607.00;;;;346678;28;95257;-92
2022/08/21 00:46:22;;;;;;;;;;;21.20;98.00;21.10;99609.00;;;;347447;28;83310;-91
2022/08/21 00:46:39;;;;;;;;;;;21.20;98.00;21.10;99616.00;;;;346617;28;95526;-91
2022/08/21 00:46:51;;;;;;;;;;;21.20;98.00;21.10;99613.00;;;;346034;28;82400;-91
2022/08/21 00:47:03;;;;;;;;;;;21.20;98.00;21.10;99617.00;;;;346675;28;96583;-91
2022/08/21 00:47:15;;;;;;;;;;;21.20;98.00;21.20;99623.00;;;;348821;27;83384;-91
2022/08/21 00:47:27;;;;;;;;;;;21.20;98.00;21.20;99614.00;;;;345198;28;97552;-91
2022/08/21 00:47:39;;;;;;;;;;;21.20;97.90;21.20;99619.00;;;;344569;28;83439;-91
2022/08/21 00:47:51;;;;;;;;;;;21.20;98.00;21.30;99610.00;;;;347946;27;96717;-91
2022/08/21 00:48:05;;;;;;;;;;;21.20;98.00;21.20;99616.00;;;;346059;28;83311;-91
2022/08/21 00:48:17;;;;;;;;;;;21.20;98.00;21.20;99622.00;;;;346547;28;96667;-91
2022/08/21 00:48:29;;;;;;;;;;;21.20;97.90;21.20;99618.00;;;;347364;28;83311;-91
2022/08/21 00:48:40;;;;;;;;;;;21.20;97.90;21.20;99615.00;;;;346653;28;96305;-91
2022/08/21 00:48:52;;;;;;;;;;;21.10;97.90;21.10;99615.00;;;;347464;28;83243;-91
2022/08/21 00:49:08;;;;;;;;;;;21.20;97.90;21.10;99616.00;;;;345287;28;96503;-92
2022/08/21 00:49:19;;;;;;;;;;;21.20;97.80;21.10;99624.00;;;;347435;28;83340;-91
2022/08/21 00:49:31;;;;;;;;;;;21.10;97.90;21.20;99623.00;;;;348067;27;96465;-91
2022/08/21 00:49:43;;;;;;;;;;;21.10;97.80;21.20;99626.00;;;;346044;28;83376;-92
2022/08/21 00:49:56;;;;;;;;;;;21.10;97.80;21.20;99614.00;;;;346584;28;96834;-92
2022/08/21 00:50:08;;;;;;;;;;;21.20;97.80;21.40;99613.00;;;;346015;28;83349;-91
2022/08/21 00:50:27;;;;;;;;;;;21.10;97.80;21.40;99621.00;;;;345293;28;95388;-91
2022/08/21 00:50:53;;;;;;;;;;;21.20;97.70;21.40;99616.00;;;;346011;28;83483;-91
2022/08/21 00:51:22;;;;;;;;;;;21.20;97.70;21.40;99614.00;;;;345274;28;97075;-91
2022/08/21 00:51:39;;;;;;;;;;;21.20;97.70;21.50;99615.00;;;;346001;28;83270;-91
2022/08/21 00:51:53;;;;;;;;;;;21.20;97.60;21.40;99620.00;;;;346609;28;96503;-91
2022/08/21 00:52:07;;;;;;;;;;;21.20;97.50;21.50;99615.00;;;;348886;27;82434;-92
2022/08/21 00:52:21;;;;;;;;;;;21.20;97.60;21.50;99613.00;;;;346591;28;96120;-91
2022/08/21 00:52:33;;;;;;;;;;;21.20;97.60;21.50;99616.00;;;;346027;28;82291;-91
2022/08/21 00:52:45;;;;;;;;;;;21.20;97.60;21.60;99616.00;;;;346678;28;95738;-91
2022/08/21 00:52:57;;;;;;;;;;;21.20;97.50;21.40;99612.00;;;;347465;28;83424;-91
2022/08/21 00:53:09;;;;;;;;;;;21.20;97.50;21.30;99618.00;;;;343912;28;95776;-91
2022/08/21 00:53:22;;;;;;;;;;;21.20;97.40;21.20;99609.00;;;;344668;28;83279;-91
2022/08/21 00:53:39;;;;;;;;;;;21.20;97.30;21.20;99610.00;;;;346638;28;96572;-91
2022/08/21 00:53:54;;;;;;;;;;;21.20;97.40;21.20;99615.00;;;;348711;27;83317;-91
2022/08/21 00:54:07;;;;;;;;;;;21.20;97.40;21.30;99623.00;;;;345301;28;96253;-91
2022/08/21 00:54:30;;;;;;;;;;;21.20;97.50;21.40;99616.00;;;;347458;28;82528;-91
2022/08/21 00:54:42;;;;;;;;;;;21.20;97.50;21.40;99615.00;;;;346578;28;97149;-91
2022/08/21 00:54:57;;;;;;;;;;;21.20;97.50;21.40;99618.00;;;;347525;28;83117;-91
2022/08/21 00:55:10;;;;;;;;;;;21.20;97.50;21.30;99611.00;;;;346637;28;95379;-91
2022/08/21 00:55:22;;;;;;;;;;;21.20;97.40;21.40;99614.00;;;;348886;27;83331;-91
2022/08/21 00:55:34;;;;;;;;;;;21.20;97.40;21.40;99611.00;;;;343863;28;96893;-91
2022/08/21 00:55:46;;;;;;;;;;;21.20;97.50;21.40;99617.00;;;;347480;28;83436;-91
2022/08/21 00:56:02;;;;;;;;;;;21.20;97.50;21.40;99611.00;;;;346660;28;96284;-91
2022/08/21 00:56:14;;;;;;;;;;;21.20;97.50;21.40;99611.00;;;;346085;28;82475;-91
2022/08/21 00:56:28;;;;;;;;;;;21.20;97.40;21.40;99604.00;;;;345258;28;95305;-91
2022/08/21 00:56:40;;;;;;;;;;;21.20;97.40;21.40;99619.00;;;;346030;28;83350;-91
2022/08/21 00:56:55;;;;;;;;;;;21.20;97.40;21.40;99618.00;;;;343664;28;97962;-91
2022/08/21 00:57:13;;;;;;;;;;;21.20;97.30;21.40;99616.00;;;;347452;28;82502;-91
2022/08/21 00:57:29;;;;;;;;;;;21.20;97.30;21.30;99619.00;;;;348140;27;94979;-91
2022/08/21 00:57:44;;;;;;;;;;;21.20;97.30;21.40;99617.00;;;;345951;28;82479;-91
2022/08/21 00:57:57;;;;;;;;;;;21.20;97.30;21.40;99615.00;;;;345185;28;95300;-91
2022/08/21 00:58:10;;;;;;;;;;;21.30;97.30;21.40;99617.00;;;;346033;28;83418;-91
2022/08/21 00:58:22;;;;;;;;;;;21.30;97.30;21.40;99613.00;;;;346773;28;95532;-91
2022/08/21 00:58:35;;;;;;;;;;;21.30;97.30;21.40;99619.00;;;;347294;28;83553;-91
2022/08/21 00:58:48;;;;;;;;;;;21.30;97.30;21.40;99617.00;;;;346546;28;96293;-91
2022/08/21 00:59:04;;;;;;;;;;;21.20;97.30;21.30;99617.00;;;;344754;28;82470;-91
2022/08/21 00:59:17;;;;;;;;;;;21.30;97.40;21.40;99621.00;;;;347755;27;97511;-91
2022/08/21 00:59:29;;;;;;;;;;;21.30;97.40;21.40;99620.00;;;;347573;28;82519;-91
2022/08/21 00:59:42;;;;;;;;;;;21.30;97.30;21.40;99620.00;;;;346603;28;96749;-92
2022/08/21 00:59:54;;;;;;;;;;;21.30;97.40;21.40;99621.00;;;;346117;28;83344;-92
2022/08/21 01:00:08;;;;;;;;;;;21.20;97.40;21.40;99617.00;;;;345387;28;96408;-91
2022/08/21 01:00:29;;;;;;;;;;;21.30;97.30;21.40;99621.00;;;;344688;28;83381;-91
2022/08/21 01:00:41;;;;;;;;;;;21.20;97.30;21.40;99620.00;;;;345299;28;96565;-91
2022/08/21 01:00:53;;;;;;;;;;;21.30;97.30;21.40;99615.00;;;;344649;28;82239;-92
2022/08/21 01:01:05;;;;;;;;;;;21.30;97.30;21.40;99620.00;;;;345356;28;95257;-91
2022/08/21 01:01:19;;;;;;;;;;;21.20;97.50;21.50;99621.00;;;;344730;28;82559;-91
2022/08/21 01:01:31;;;;;;;;;;;21.20;97.50;21.40;99619.00;;;;346669;28;96515;-91
2022/08/21 01:01:43;;;;;;;;;;;21.20;97.30;21.50;99618.00;;;;348956;27;82371;-91
2022/08/21 01:01:55;;;;;;;;;;;21.20;97.20;21.50;99619.00;;;;348110;27;95509;-91
2022/08/21 01:02:07;;;;;;;;;;;21.20;97.30;21.40;99618.00;;;;346097;28;83404;-91
2022/08/21 01:02:20;;;;;;;;;;;21.20;97.30;21.20;99615.00;;;;346730;28;95545;-91
2022/08/21 01:02:32;;;;;;;;;;;21.20;97.30;21.30;99620.00;;;;347341;28;83466;-91
2022/08/21 01:02:44;;;;;;;;;;;21.20;97.30;21.30;99620.00;;;;345286;28;95710;-91
2022/08/21 01:02:56;;;;;;;;;;;21.20;97.30;21.40;99623.00;;;;344686;28;83285;-91
2022/08/21 01:03:11;;;;;;;;;;;21.20;97.30;21.40;99618.00;;;;346657;28;94434;-92
2022/08/21 01:03:25;;;;;;;;;;;21.20;97.30;21.40;99616.00;;;;347567;28;82443;-91
2022/08/21 01:03:37;;;;;;;;;;;21.20;97.30;21.40;99616.00;;;;349284;27;95633;-91
2022/08/21 01:03:54;;;;;;;;;;;21.20;97.40;21.50;99618.00;;;;347240;28;83577;-91